sensor_id;sensor_type;location;lat;lon;timestamp;pressure;altitude;pressure_sealevel;temperature;humidity
44198;BME280;30157;55.512;37.764;2022-08-02T00:00:51;100098.69;;;16.67;58.75
44198;BME280;30157;55.512;37.764;2022-08-02T00:03:17;100068.69;;;16.44;58.71
44198;BME280;30157;55.512;37.764;2022-08-02T00:05:43;100043.81;;;16.26;58.75
44198;BME280;30157;55.512;37.764;2022-08-02T00:08:08;100070.53;;;16.40;59.01
44198;BME280;30157;55.512;37.764;2022-08-02T00:10:36;100076.66;;;16.39;59.47
44198;BME280;30157;55.512;37.764;2022-08-02T00:13:02;100050.25;;;16.12;59.26
44198;BME280;30157;55.512;37.764;2022-08-02T00:15:28;100080.34;;;16.32;59.63
44198;BME280;30157;55.512;37.764;2022-08-02T00:17:54;100070.91;;;16.23;59.73
44198;BME280;30157;55.512;37.764;2022-08-02T00:20:20;100092.53;;;16.33;59.85
44198;BME280;30157;55.512;37.764;2022-08-02T00:22:45;100033.94;;;16.01;60.11
44198;BME280;30157;55.512;37.764;2022-08-02T00:25:11;100076.84;;;16.32;60.43
44198;BME280;30157;55.512;37.764;2022-08-02T00:27:37;100094.00;;;16.43;60.86
44198;BME280;30157;55.512;37.764;2022-08-02T00:30:03;100076.81;;;16.33;61.26
44198;BME280;30157;55.512;37.764;2022-08-02T00:32:30;100055.41;;;16.16;61.51
44198;BME280;30157;55.512;37.764;2022-08-02T00:34:56;100093.38;;;16.34;62.43
44198;BME280;30157;55.512;37.764;2022-08-02T00:37:21;100045.47;;;15.92;62.52
44198;BME280;30157;55.512;37.764;2022-08-02T00:39:47;100095.41;;;16.21;63.12
44198;BME280;30157;55.512;37.764;2022-08-02T00:42:13;100074.00;;;16.03;63.34
44198;BME280;30157;55.512;37.764;2022-08-02T00:44:39;100095.66;;;16.11;63.08
44198;BME280;30157;55.512;37.764;2022-08-02T00:47:05;100033.72;;;15.71;63.11
44198;BME280;30157;55.512;37.764;2022-08-02T00:49:31;100106.31;;;16.04;63.56
44198;BME280;30157;55.512;37.764;2022-08-02T00:51:57;100094.28;;;15.95;63.68
44198;BME280;30157;55.512;37.764;2022-08-02T00:54:22;100084.81;;;15.89;63.77
44198;BME280;30157;55.512;37.764;2022-08-02T00:56:48;100085.66;;;15.90;63.60
44198;BME280;30157;55.512;37.764;2022-08-02T00:59:14;100097.72;;;15.97;63.95
44198;BME280;30157;55.512;37.764;2022-08-02T01:01:39;100080.63;;;15.82;63.62
44198;BME280;30157;55.512;37.764;2022-08-02T01:04:11;100046.25;;;15.57;63.65
44198;BME280;30157;55.512;37.764;2022-08-02T01:06:39;100096.28;;;15.84;63.71
44198;BME280;30157;55.512;37.764;2022-08-02T01:09:06;100091.09;;;15.82;63.92
44198;BME280;30157;55.512;37.764;2022-08-02T01:11:33;100035.91;;;15.51;63.90
44198;BME280;30157;55.512;37.764;2022-08-02T01:14:09;100085.06;;;15.77;63.68
44198;BME280;30157;55.512;37.764;2022-08-02T01:16:53;100042.16;;;15.43;64.21
44198;BME280;30157;55.512;37.764;2022-08-02T01:19:35;100069.78;;;15.57;64.37
44198;BME280;30157;55.512;37.764;2022-08-02T01:22:15;100062.16;;;15.46;64.49
44198;BME280;30157;55.512;37.764;2022-08-02T01:25:03;100074.41;;;15.45;64.37
44198;BME280;30157;55.512;37.764;2022-08-02T01:27:45;100076.94;;;15.49;64.22
44198;BME280;30157;55.512;37.764;2022-08-02T01:30:16;100069.97;;;15.48;64.23
44198;BME280;30157;55.512;37.764;2022-08-02T01:32:47;100040.69;;;15.30;63.99
44198;BME280;30157;55.512;37.764;2022-08-02T01:35:16;100082.72;;;15.65;64.03
44198;BME280;30157;55.512;37.764;2022-08-02T01:38:29;100075.78;;;15.62;64.15
44198;BME280;30157;55.512;37.764;2022-08-02T01:40:57;100085.38;;;15.63;64.19
44198;BME280;30157;55.512;37.764;2022-08-02T01:43:25;100087.22;;;15.58;64.00
44198;BME280;30157;55.512;37.764;2022-08-02T01:45:53;100094.19;;;15.57;63.79
44198;BME280;30157;55.512;37.764;2022-08-02T01:48:20;100091.59;;;15.56;64.08
44198;BME280;30157;55.512;37.764;2022-08-02T01:50:48;100084.06;;;15.42;63.90
44198;BME280;30157;55.512;37.764;2022-08-02T01:53:17;100090.00;;;15.49;64.46
44198;BME280;30157;55.512;37.764;2022-08-02T01:55:45;100032.38;;;15.11;64.38
44198;BME280;30157;55.512;37.764;2022-08-02T01:58:16;100103.72;;;15.60;65.15
44198;BME280;30157;55.512;37.764;2022-08-02T02:00:42;100047.72;;;15.28;65.35
44198;BME280;30157;55.512;37.764;2022-08-02T02:03:13;100079.78;;;15.38;65.46
44198;BME280;30157;55.512;37.764;2022-08-02T02:05:41;100103.13;;;15.47;65.98
44198;BME280;30157;55.512;37.764;2022-08-02T02:08:08;100072.84;;;15.35;66.47
44198;BME280;30157;55.512;37.764;2022-08-02T02:10:37;100084.06;;;15.42;66.82
44198;BME280;30157;55.512;37.764;2022-08-02T02:13:06;100069.41;;;15.33;67.12
44198;BME280;30157;55.512;37.764;2022-08-02T02:15:39;100105.53;;;15.58;67.26
44198;BME280;30157;55.512;37.764;2022-08-02T02:18:07;100035.84;;;15.11;67.46
44198;BME280;30157;55.512;37.764;2022-08-02T02:20:33;100038.56;;;15.07;67.42
44198;BME280;30157;55.512;37.764;2022-08-02T02:22:59;100056.75;;;15.11;67.76
44198;BME280;30157;55.512;37.764;2022-08-02T02:25:24;100113.66;;;15.42;67.74
44198;BME280;30157;55.512;37.764;2022-08-02T02:28:02;100109.44;;;15.37;67.99
44198;BME280;30157;55.512;37.764;2022-08-02T02:30:30;100093.94;;;15.26;68.08
44198;BME280;30157;55.512;37.764;2022-08-02T02:33:00;100102.72;;;15.23;68.35
44198;BME280;30157;55.512;37.764;2022-08-02T02:35:28;100067.38;;;15.04;67.75
44198;BME280;30157;55.512;37.764;2022-08-02T02:37:55;100101.75;;;15.27;67.37
44198;BME280;30157;55.512;37.764;2022-08-02T02:40:22;100059.41;;;15.10;67.32
44198;BME280;30157;55.512;37.764;2022-08-02T02:42:50;100106.75;;;15.40;67.40
44198;BME280;30157;55.512;37.764;2022-08-02T02:45:17;100109.84;;;15.60;66.69
44198;BME280;30157;55.512;37.764;2022-08-02T02:47:46;100051.09;;;15.35;66.28
44198;BME280;30157;55.512;37.764;2022-08-02T02:50:15;100110.97;;;15.89;65.70
44198;BME280;30157;55.512;37.764;2022-08-02T02:52:43;100105.19;;;16.14;64.87
44198;BME280;30157;55.512;37.764;2022-08-02T02:55:10;100047.13;;;15.96;64.37
44198;BME280;30157;55.512;37.764;2022-08-02T02:57:37;100102.78;;;16.42;63.90
44198;BME280;30157;55.512;37.764;2022-08-02T03:00:07;100094.41;;;16.64;62.90
44198;BME280;30157;55.512;37.764;2022-08-02T03:02:36;100104.88;;;16.99;62.48
44198;BME280;30157;55.512;37.764;2022-08-02T03:05:03;100070.34;;;16.81;62.03
44198;BME280;30157;55.512;37.764;2022-08-02T03:07:31;100075.72;;;16.76;61.63
44198;BME280;30157;55.512;37.764;2022-08-02T03:09:57;100076.47;;;16.82;61.70
44198;BME280;30157;55.512;37.764;2022-08-02T03:12:23;100098.59;;;17.04;61.46
44198;BME280;30157;55.512;37.764;2022-08-02T03:14:49;100022.00;;;16.60;61.50
44198;BME280;30157;55.512;37.764;2022-08-02T03:17:16;100105.31;;;17.15;61.13
44198;BME280;30157;55.512;37.764;2022-08-02T03:19:41;100104.28;;;17.20;61.08
44198;BME280;30157;55.512;37.764;2022-08-02T03:22:07;100103.97;;;17.33;60.76
44198;BME280;30157;55.512;37.764;2022-08-02T03:24:33;100098.28;;;17.48;60.72
44198;BME280;30157;55.512;37.764;2022-08-02T03:26:58;100099.81;;;17.55;60.33
44198;BME280;30157;55.512;37.764;2022-08-02T03:29:24;100081.31;;;17.60;59.71
44198;BME280;30157;55.512;37.764;2022-08-02T03:31:50;100094.16;;;17.99;59.11
44198;BME280;30157;55.512;37.764;2022-08-02T03:34:16;100099.72;;;18.45;57.99
44198;BME280;30157;55.512;37.764;2022-08-02T03:36:42;100042.63;;;18.75;56.93
44198;BME280;30157;55.512;37.764;2022-08-02T03:39:11;100088.19;;;19.50;55.53
44198;BME280;30157;55.512;37.764;2022-08-02T03:41:37;100103.53;;;20.08;53.62
44198;BME280;30157;55.512;37.764;2022-08-02T03:44:04;100103.09;;;20.41;53.50
44198;BME280;30157;55.512;37.764;2022-08-02T03:46:32;100087.97;;;20.67;51.65
44198;BME280;30157;55.512;37.764;2022-08-02T03:48:59;100110.53;;;21.15;51.35
44198;BME280;30157;55.512;37.764;2022-08-02T03:51:25;100073.19;;;21.25;50.68
44198;BME280;30157;55.512;37.764;2022-08-02T03:53:51;100102.56;;;21.57;50.50
44198;BME280;30157;55.512;37.764;2022-08-02T03:56:17;100067.03;;;21.64;49.76
44198;BME280;30157;55.512;37.764;2022-08-02T03:58:43;100098.25;;;22.11;49.51
44198;BME280;30157;55.512;37.764;2022-08-02T04:01:09;100067.78;;;22.22;48.92
44198;BME280;30157;55.512;37.764;2022-08-02T04:03:35;100089.84;;;22.57;48.07
44198;BME280;30157;55.512;37.764;2022-08-02T04:06:00;100061.94;;;22.69;46.71
44198;BME280;30157;55.512;37.764;2022-08-02T04:08:26;100096.38;;;23.03;46.59
44198;BME280;30157;55.512;37.764;2022-08-02T04:10:52;100093.09;;;22.97;46.46
44198;BME280;30157;55.512;37.764;2022-08-02T04:13:36;100104.25;;;23.38;46.08
44198;BME280;30157;55.512;37.764;2022-08-02T04:16:18;100091.34;;;23.31;45.16
44198;BME280;30157;55.512;37.764;2022-08-02T04:18:56;100090.75;;;23.42;45.46
44198;BME280;30157;55.512;37.764;2022-08-02T04:21:26;100091.41;;;23.63;45.56
44198;BME280;30157;55.512;37.764;2022-08-02T04:23:53;100078.31;;;23.60;44.56
44198;BME280;30157;55.512;37.764;2022-08-02T04:26:20;100084.59;;;23.08;45.48
44198;BME280;30157;55.512;37.764;2022-08-02T04:28:47;100087.50;;;22.14;47.60
44198;BME280;30157;55.512;37.764;2022-08-02T04:31:15;100099.22;;;21.72;49.07
44198;BME280;30157;55.512;37.764;2022-08-02T04:33:41;100088.59;;;21.34;49.84
44198;BME280;30157;55.512;37.764;2022-08-02T04:36:07;100076.38;;;20.92;50.58
44198;BME280;30157;55.512;37.764;2022-08-02T04:38:38;100076.19;;;20.76;51.62
44198;BME280;30157;55.512;37.764;2022-08-02T04:41:03;100106.84;;;20.78;51.70
44198;BME280;30157;55.512;37.764;2022-08-02T04:43:29;100095.72;;;20.50;52.27
44198;BME280;30157;55.512;37.764;2022-08-02T04:45:57;100118.72;;;20.46;52.65
44198;BME280;30157;55.512;37.764;2022-08-02T04:48:23;100116.41;;;20.38;53.10
44198;BME280;30157;55.512;37.764;2022-08-02T04:50:49;100079.81;;;20.30;53.06
44198;BME280;30157;55.512;37.764;2022-08-02T04:53:15;100098.97;;;20.34;52.91
44198;BME280;30157;55.512;37.764;2022-08-02T04:55:42;100111.25;;;20.35;53.20
44198;BME280;30157;55.512;37.764;2022-08-02T04:58:08;100068.97;;;20.16;53.55
44198;BME280;30157;55.512;37.764;2022-08-02T05:00:33;100101.44;;;20.39;53.42
44198;BME280;30157;55.512;37.764;2022-08-02T05:03:01;99989.53;;;19.60;52.97
44198;BME280;30157;55.512;37.764;2022-08-02T05:05:27;100051.16;;;20.01;53.11
44198;BME280;30157;55.512;37.764;2022-08-02T05:07:53;100115.66;;;20.35;53.58
44198;BME280;30157;55.512;37.764;2022-08-02T05:10:19;100114.00;;;20.32;52.89
44198;BME280;30157;55.512;37.764;2022-08-02T05:12:45;100104.13;;;20.37;52.77
44198;BME280;30157;55.512;37.764;2022-08-02T05:15:12;100105.00;;;20.38;53.64
44198;BME280;30157;55.512;37.764;2022-08-02T05:17:39;100095.66;;;20.73;52.88
44198;BME280;30157;55.512;37.764;2022-08-02T05:20:05;100111.59;;;21.11;51.53
44198;BME280;30157;55.512;37.764;2022-08-02T05:22:31;100101.84;;;20.93;51.64
44198;BME280;30157;55.512;37.764;2022-08-02T05:24:57;100097.41;;;20.73;51.84
44198;BME280;30157;55.512;37.764;2022-08-02T05:27:23;100060.91;;;20.41;52.48
44198;BME280;30157;55.512;37.764;2022-08-02T05:29:48;100094.66;;;20.96;52.27
44198;BME280;30157;55.512;37.764;2022-08-02T05:32:17;100079.50;;;21.02;52.39
44198;BME280;30157;55.512;37.764;2022-08-02T05:34:43;100100.31;;;22.05;50.04
44198;BME280;30157;55.512;37.764;2022-08-02T05:37:08;100103.56;;;21.92;49.75
44198;BME280;30157;55.512;37.764;2022-08-02T05:39:34;100098.13;;;21.95;50.22
44198;BME280;30157;55.512;37.764;2022-08-02T05:42:00;100079.34;;;22.38;48.41
44198;BME280;30157;55.512;37.764;2022-08-02T05:44:25;100098.28;;;23.34;47.26
44198;BME280;30157;55.512;37.764;2022-08-02T05:46:51;100082.44;;;23.17;46.80
44198;BME280;30157;55.512;37.764;2022-08-02T05:49:17;100072.94;;;22.95;47.40
44198;BME280;30157;55.512;37.764;2022-08-02T05:51:54;100088.06;;;22.93;47.49
44198;BME280;30157;55.512;37.764;2022-08-02T05:54:38;100080.91;;;22.77;46.85
44198;BME280;30157;55.512;37.764;2022-08-02T05:57:40;100085.59;;;23.06;46.90
44198;BME280;30157;55.512;37.764;2022-08-02T06:00:09;100078.13;;;23.47;46.20
44198;BME280;30157;55.512;37.764;2022-08-02T06:03:03;100073.84;;;23.45;46.28
44198;BME280;30157;55.512;37.764;2022-08-02T06:05:35;100043.44;;;24.16;44.54
44198;BME280;30157;55.512;37.764;2022-08-02T06:08:05;100067.94;;;25.81;42.53
44198;BME280;30157;55.512;37.764;2022-08-02T06:10:36;100066.75;;;26.27;41.74
44198;BME280;30157;55.512;37.764;2022-08-02T06:13:13;100080.00;;;26.82;40.05
44198;BME280;30157;55.512;37.764;2022-08-02T06:15:41;100020.72;;;26.65;39.99
44198;BME280;30157;55.512;37.764;2022-08-02T06:18:08;100071.50;;;27.65;38.90
44198;BME280;30157;55.512;37.764;2022-08-02T06:20:35;100018.78;;;28.06;37.43
44198;BME280;30157;55.512;37.764;2022-08-02T06:23:06;100046.16;;;28.79;36.68
44198;BME280;30157;55.512;37.764;2022-08-02T06:25:34;100071.56;;;28.96;36.41
44198;BME280;30157;55.512;37.764;2022-08-02T06:28:02;100057.00;;;29.00;36.23
44198;BME280;30157;55.512;37.764;2022-08-02T06:30:29;100068.19;;;29.62;34.69
44198;BME280;30157;55.512;37.764;2022-08-02T06:32:55;100065.47;;;29.74;33.47
44198;BME280;30157;55.512;37.764;2022-08-02T06:35:21;100061.47;;;29.79;33.11
44198;BME280;30157;55.512;37.764;2022-08-02T06:37:58;100067.69;;;29.57;33.43
44198;BME280;30157;55.512;37.764;2022-08-02T06:41:07;100062.91;;;29.83;33.29
44198;BME280;30157;55.512;37.764;2022-08-02T06:43:59;100058.38;;;29.95;32.75
44198;BME280;30157;55.512;37.764;2022-08-02T06:46:26;100007.56;;;29.95;32.59
44198;BME280;30157;55.512;37.764;2022-08-02T06:48:52;100016.47;;;30.38;31.28
44198;BME280;30157;55.512;37.764;2022-08-02T06:51:25;100006.19;;;30.33;31.65
44198;BME280;30157;55.512;37.764;2022-08-02T06:53:51;100058.03;;;30.75;31.10
44198;BME280;30157;55.512;37.764;2022-08-02T06:56:17;100042.03;;;30.85;29.91
44198;BME280;30157;55.512;37.764;2022-08-02T06:58:45;100067.44;;;30.48;30.25
44198;BME280;30157;55.512;37.764;2022-08-02T07:01:11;100025.09;;;30.21;30.35
44198;BME280;30157;55.512;37.764;2022-08-02T07:03:38;100042.13;;;30.20;30.74
44198;BME280;30157;55.512;37.764;2022-08-02T07:06:06;100049.84;;;30.45;30.25
44198;BME280;30157;55.512;37.764;2022-08-02T07:08:36;100050.41;;;30.70;30.17
44198;BME280;30157;55.512;37.764;2022-08-02T07:11:07;100045.75;;;31.34;29.54
44198;BME280;30157;55.512;37.764;2022-08-02T07:13:35;100045.69;;;31.55;29.51
44198;BME280;30157;55.512;37.764;2022-08-02T07:16:02;100038.72;;;31.74;27.81
44198;BME280;30157;55.512;37.764;2022-08-02T07:18:29;100038.75;;;31.43;28.25
44198;BME280;30157;55.512;37.764;2022-08-02T07:20:54;100011.81;;;31.04;28.22
44198;BME280;30157;55.512;37.764;2022-08-02T07:23:20;100042.13;;;31.04;27.75
44198;BME280;30157;55.512;37.764;2022-08-02T07:25:58;100051.53;;;30.98;27.63
44198;BME280;30157;55.512;37.764;2022-08-02T07:28:24;100029.59;;;30.83;27.49
44198;BME280;30157;55.512;37.764;2022-08-02T07:30:50;99979.94;;;30.48;27.69
44198;BME280;30157;55.512;37.764;2022-08-02T07:33:16;100034.41;;;31.11;27.30
44198;BME280;30157;55.512;37.764;2022-08-02T07:35:44;99999.19;;;31.25;26.67
44198;BME280;30157;55.512;37.764;2022-08-02T07:38:10;100050.06;;;31.46;26.33
44198;BME280;30157;55.512;37.764;2022-08-02T07:40:36;100037.50;;;31.06;27.17
44198;BME280;30157;55.512;37.764;2022-08-02T07:43:02;100006.97;;;31.38;26.57
44198;BME280;30157;55.512;37.764;2022-08-02T07:45:32;100018.88;;;31.05;26.83
44198;BME280;30157;55.512;37.764;2022-08-02T07:47:58;100046.28;;;30.87;27.36
44198;BME280;30157;55.512;37.764;2022-08-02T07:50:24;100054.00;;;30.80;27.05
44198;BME280;30157;55.512;37.764;2022-08-02T07:52:49;100048.81;;;30.89;26.92
44198;BME280;30157;55.512;37.764;2022-08-02T07:55:15;100049.97;;;31.17;26.96
44198;BME280;30157;55.512;37.764;2022-08-02T07:57:43;99994.16;;;30.70;27.53
44198;BME280;30157;55.512;37.764;2022-08-02T08:00:09;100038.47;;;31.46;26.51
44198;BME280;30157;55.512;37.764;2022-08-02T08:02:38;100007.97;;;31.37;26.26
44198;BME280;30157;55.512;37.764;2022-08-02T08:05:05;100034.47;;;31.91;25.04
44198;BME280;30157;55.512;37.764;2022-08-02T08:07:32;100041.41;;;31.33;26.42
44198;BME280;30157;55.512;37.764;2022-08-02T08:09:58;100057.81;;;29.92;27.63
44198;BME280;30157;55.512;37.764;2022-08-02T08:12:26;100041.97;;;30.00;27.74
44198;BME280;30157;55.512;37.764;2022-08-02T08:14:51;100039.28;;;30.75;27.02
44198;BME280;30157;55.512;37.764;2022-08-02T08:17:18;100032.19;;;29.66;28.60
44198;BME280;30157;55.512;37.764;2022-08-02T08:19:44;100048.66;;;28.58;30.46
44198;BME280;30157;55.512;37.764;2022-08-02T08:22:09;100034.94;;;28.16;31.85
44198;BME280;30157;55.512;37.764;2022-08-02T08:24:35;100039.63;;;29.40;30.41
44198;BME280;30157;55.512;37.764;2022-08-02T08:27:01;100033.63;;;30.99;28.77
44198;BME280;30157;55.512;37.764;2022-08-02T08:29:26;100043.13;;;30.82;27.94
44198;BME280;30157;55.512;37.764;2022-08-02T08:31:52;100022.50;;;30.52;27.42
44198;BME280;30157;55.512;37.764;2022-08-02T08:34:18;100017.00;;;31.36;26.04
44198;BME280;30157;55.512;37.764;2022-08-02T08:36:44;99997.50;;;29.10;28.94
44198;BME280;30157;55.512;37.764;2022-08-02T08:39:09;99998.34;;;28.88;30.38
44198;BME280;30157;55.512;37.764;2022-08-02T08:41:35;100029.97;;;30.15;28.88
44198;BME280;30157;55.512;37.764;2022-08-02T08:44:01;100047.50;;;28.85;30.25
44198;BME280;30157;55.512;37.764;2022-08-02T08:46:29;99961.34;;;27.41;32.14
44198;BME280;30157;55.512;37.764;2022-08-02T08:49:00;100022.94;;;28.22;30.67
44198;BME280;30157;55.512;37.764;2022-08-02T08:51:36;100020.22;;;28.81;29.88
44198;BME280;30157;55.512;37.764;2022-08-02T08:54:03;100020.00;;;28.13;30.79
44198;BME280;30157;55.512;37.764;2022-08-02T08:56:34;99969.69;;;29.35;28.74
44198;BME280;30157;55.512;37.764;2022-08-02T08:59:02;99974.31;;;31.04;27.38
44198;BME280;30157;55.512;37.764;2022-08-02T09:01:28;99992.88;;;31.56;25.96
44198;BME280;30157;55.512;37.764;2022-08-02T09:03:56;99987.66;;;31.54;26.43
44198;BME280;30157;55.512;37.764;2022-08-02T09:06:23;99982.94;;;31.97;26.34
44198;BME280;30157;55.512;37.764;2022-08-02T09:08:49;100009.88;;;32.54;24.93
44198;BME280;30157;55.512;37.764;2022-08-02T09:11:21;99997.09;;;32.66;24.93
44198;BME280;30157;55.512;37.764;2022-08-02T09:16:35;99952.50;;;31.28;25.67
44198;BME280;30157;55.512;37.764;2022-08-02T09:19:19;99988.16;;;31.98;25.55
44198;BME280;30157;55.512;37.764;2022-08-02T09:21:48;100010.19;;;30.07;26.49
44198;BME280;30157;55.512;37.764;2022-08-02T09:24:22;99988.75;;;29.86;27.50
44198;BME280;30157;55.512;37.764;2022-08-02T09:26:51;99995.25;;;30.89;26.14
44198;BME280;30157;55.512;37.764;2022-08-02T09:29:21;99985.41;;;30.26;27.72
44198;BME280;30157;55.512;37.764;2022-08-02T09:31:49;99985.28;;;31.41;25.38
44198;BME280;30157;55.512;37.764;2022-08-02T09:34:16;99990.72;;;31.71;24.64
44198;BME280;30157;55.512;37.764;2022-08-02T09:36:44;99981.94;;;32.27;24.36
44198;BME280;30157;55.512;37.764;2022-08-02T09:39:12;99913.97;;;32.37;23.48
44198;BME280;30157;55.512;37.764;2022-08-02T09:41:48;99979.72;;;33.54;23.04
44198;BME280;30157;55.512;37.764;2022-08-02T09:44:14;99959.41;;;32.95;23.26
44198;BME280;30157;55.512;37.764;2022-08-02T09:46:44;99986.16;;;33.25;23.53
44198;BME280;30157;55.512;37.764;2022-08-02T09:49:12;99992.78;;;33.30;22.90
44198;BME280;30157;55.512;37.764;2022-08-02T09:51:47;99952.22;;;33.14;23.16
44198;BME280;30157;55.512;37.764;2022-08-02T09:54:19;99968.75;;;33.47;22.32
44198;BME280;30157;55.512;37.764;2022-08-02T09:56:53;99996.72;;;33.72;21.79
44198;BME280;30157;55.512;37.764;2022-08-02T09:59:20;100004.50;;;33.29;22.19
44198;BME280;30157;55.512;37.764;2022-08-02T10:01:48;99991.34;;;32.51;22.90
44198;BME280;30157;55.512;37.764;2022-08-02T10:04:19;99994.59;;;33.02;22.72
44198;BME280;30157;55.512;37.764;2022-08-02T10:06:49;99993.50;;;32.95;22.98
44198;BME280;30157;55.512;37.764;2022-08-02T10:09:16;99993.63;;;31.07;24.59
44198;BME280;30157;55.512;37.764;2022-08-02T10:11:42;99965.75;;;29.50;26.58
44198;BME280;30157;55.512;37.764;2022-08-02T10:14:09;99959.72;;;31.37;23.94
44198;BME280;30157;55.512;37.764;2022-08-02T10:16:37;99967.53;;;33.13;22.10
44198;BME280;30157;55.512;37.764;2022-08-02T10:19:03;99984.75;;;33.48;21.72
44198;BME280;30157;55.512;37.764;2022-08-02T10:21:47;100000.56;;;33.70;21.47
44198;BME280;30157;55.512;37.764;2022-08-02T10:24:20;99979.94;;;34.06;21.36
44198;BME280;30157;55.512;37.764;2022-08-02T10:26:47;99972.22;;;34.64;21.30
44198;BME280;30157;55.512;37.764;2022-08-02T10:29:26;99984.78;;;34.81;21.37
44198;BME280;30157;55.512;37.764;2022-08-02T10:35:05;99961.91;;;34.51;20.93
44198;BME280;30157;55.512;37.764;2022-08-02T10:37:32;99979.28;;;34.83;21.22
44198;BME280;30157;55.512;37.764;2022-08-02T10:40:00;99983.47;;;34.86;21.54
44198;BME280;30157;55.512;37.764;2022-08-02T10:42:47;99994.66;;;32.25;23.86
44198;BME280;30157;55.512;37.764;2022-08-02T10:45:18;99869.47;;;32.90;21.97
44198;BME280;30157;55.512;37.764;2022-08-02T10:48:02;99971.31;;;33.48;22.60
44198;BME280;30157;55.512;37.764;2022-08-02T10:51:01;99981.50;;;31.73;24.99
44198;BME280;30157;55.512;37.764;2022-08-02T10:53:31;99939.28;;;30.95;25.10
44198;BME280;30157;55.512;37.764;2022-08-02T10:55:59;99980.44;;;32.62;24.11
44198;BME280;30157;55.512;37.764;2022-08-02T10:58:27;99933.19;;;33.35;23.15
44198;BME280;30157;55.512;37.764;2022-08-02T11:00:57;99943.91;;;34.07;21.98
44198;BME280;30157;55.512;37.764;2022-08-02T11:03:37;99965.22;;;34.71;21.70
44198;BME280;30157;55.512;37.764;2022-08-02T11:06:09;99968.44;;;33.50;22.74
44198;BME280;30157;55.512;37.764;2022-08-02T11:08:36;99978.34;;;31.39;25.04
44198;BME280;30157;55.512;37.764;2022-08-02T11:11:23;99980.66;;;31.82;24.42
44198;BME280;30157;55.512;37.764;2022-08-02T11:19:23;99944.69;;;30.74;26.00
44198;BME280;30157;55.512;37.764;2022-08-02T11:22:12;99975.00;;;30.75;25.93
44198;BME280;30157;55.512;37.764;2022-08-02T11:24:41;99965.19;;;30.54;25.86
44198;BME280;30157;55.512;37.764;2022-08-02T11:27:08;99947.38;;;31.05;24.73
44198;BME280;30157;55.512;37.764;2022-08-02T11:29:42;99956.69;;;29.74;26.80
44198;BME280;30157;55.512;37.764;2022-08-02T11:32:22;99963.59;;;29.44;27.72
44198;BME280;30157;55.512;37.764;2022-08-02T11:34:50;99922.84;;;28.74;28.78
44198;BME280;30157;55.512;37.764;2022-08-02T11:37:30;99951.63;;;29.60;28.08
44198;BME280;30157;55.512;37.764;2022-08-02T11:39:56;99909.47;;;32.17;25.16
44198;BME280;30157;55.512;37.764;2022-08-02T11:42:33;99956.59;;;34.15;23.00
44198;BME280;30157;55.512;37.764;2022-08-02T11:44:59;99919.25;;;33.94;22.54
44198;BME280;30157;55.512;37.764;2022-08-02T11:47:26;99937.09;;;35.16;21.15
44198;BME280;30157;55.512;37.764;2022-08-02T11:49:52;99946.31;;;35.57;21.11
44198;BME280;30157;55.512;37.764;2022-08-02T11:52:33;99926.56;;;34.28;21.69
44198;BME280;30157;55.512;37.764;2022-08-02T11:54:59;99936.03;;;33.88;22.50
44198;BME280;30157;55.512;37.764;2022-08-02T11:57:25;99902.94;;;33.77;22.77
44198;BME280;30157;55.512;37.764;2022-08-02T11:59:55;99958.91;;;33.56;23.16
44198;BME280;30157;55.512;37.764;2022-08-02T12:02:24;99942.84;;;33.00;23.58
44198;BME280;30157;55.512;37.764;2022-08-02T12:04:56;99956.16;;;32.54;24.46
44198;BME280;30157;55.512;37.764;2022-08-02T12:07:27;99946.41;;;32.53;24.67
44198;BME280;30157;55.512;37.764;2022-08-02T12:09:58;99960.03;;;31.73;24.89
44198;BME280;30157;55.512;37.764;2022-08-02T12:12:25;99952.06;;;30.82;26.40
44198;BME280;30157;55.512;37.764;2022-08-02T12:14:50;99923.25;;;29.47;27.74
44198;BME280;30157;55.512;37.764;2022-08-02T12:17:24;99967.50;;;29.06;28.81
44198;BME280;30157;55.512;37.764;2022-08-02T12:20:10;99928.13;;;29.42;27.74
44198;BME280;30157;55.512;37.764;2022-08-02T12:22:36;99937.56;;;30.94;26.28
44198;BME280;30157;55.512;37.764;2022-08-02T12:25:19;99947.75;;;32.20;24.77
44198;BME280;30157;55.512;37.764;2022-08-02T12:27:47;99924.31;;;32.97;23.33
44198;BME280;30157;55.512;37.764;2022-08-02T12:30:17;99954.69;;;33.07;22.63
44198;BME280;30157;55.512;37.764;2022-08-02T12:32:44;99963.81;;;32.39;23.53
44198;BME280;30157;55.512;37.764;2022-08-02T12:35:16;99952.81;;;30.42;26.18
44198;BME280;30157;55.512;37.764;2022-08-02T12:37:46;99950.38;;;29.31;27.95
44198;BME280;30157;55.512;37.764;2022-08-02T12:40:23;99934.81;;;28.46;28.84
44198;BME280;30157;55.512;37.764;2022-08-02T12:43:01;99945.63;;;29.24;28.12
44198;BME280;30157;55.512;37.764;2022-08-02T12:45:30;99950.63;;;30.47;27.31
44198;BME280;30157;55.512;37.764;2022-08-02T12:47:58;99936.84;;;30.92;26.42
44198;BME280;30157;55.512;37.764;2022-08-02T12:50:29;99944.84;;;30.73;26.40
44198;BME280;30157;55.512;37.764;2022-08-02T12:53:14;99944.16;;;29.86;27.29
44198;BME280;30157;55.512;37.764;2022-08-02T12:55:54;99955.63;;;29.65;27.67
44198;BME280;30157;55.512;37.764;2022-08-02T12:58:20;99911.34;;;28.74;27.75
44198;BME280;30157;55.512;37.764;2022-08-02T13:01:00;99883.97;;;28.13;29.13
44198;BME280;30157;55.512;37.764;2022-08-02T13:03:26;99877.84;;;27.89;29.11
44198;BME280;30157;55.512;37.764;2022-08-02T13:05:52;99900.63;;;27.93;29.29